Time;durP1;ratioP1;P1;durP2;ratioP2;P2;SDS_P1;SDS_P2;PMS_P1;PMS_P2;Temp;Humidity;BMP_temperature;BMP_pressure;BME280_temperature;BME280_humidity;BME280_pressure;Samples;Min_cycle;Max_cycle;Signal;HPM_P1;HPM_P2
2020/12/17 00:00:17;;;;;;;5.43;3.30;;;10.50;82.10;;;;;;5006689;28;20019;-77
2020/12/17 00:02:43;;;;;;;4.78;3.28;;;10.50;82.10;;;;;;4991063;28;20121;-77
2020/12/17 00:05:09;;;;;;;4.45;3.13;;;10.50;82.10;;;;;;4974578;28;20439;-76
2020/12/17 00:07:37;;;;;;;4.72;3.33;;;10.50;82.10;;;;;;5008116;28;20037;-76
2020/12/17 00:10:07;;;;;;;4.88;3.40;;;10.50;82.10;;;;;;4992329;28;20038;-76
2020/12/17 00:12:37;;;;;;;4.97;3.30;;;10.50;82.10;;;;;;4990090;28;20022;-77
2020/12/17 00:15:14;;;;;;;5.07;3.40;;;10.50;82.10;;;;;;4988286;28;20400;-76
2020/12/17 00:17:50;;;;;;;5.25;3.58;;;10.60;82.20;;;;;;4990981;28;20027;-76
2020/12/17 00:20:25;;;;;;;4.70;3.33;;;10.50;82.10;;;;;;5006979;28;20030;-76
2020/12/17 00:22:51;;;;;;;4.88;3.17;;;10.50;82.10;;;;;;4975415;28;20030;-74
2020/12/17 00:25:18;;;;;;;3.78;2.80;;;10.60;82.10;;;;;;4971029;28;20050;-74
2020/12/17 00:27:45;;;;;;;4.35;3.05;;;10.60;82.10;;;;;;4992546;28;20087;-76
2020/12/17 00:30:13;;;;;;;4.70;3.30;;;10.50;82.10;;;;;;4995189;28;20050;-75
2020/12/17 00:32:42;;;;;;;4.45;3.13;;;10.60;82.10;;;;;;5010872;28;20034;-74
2020/12/17 00:35:09;;;;;;;4.70;3.30;;;10.60;82.10;;;;;;4991459;28;20035;-74
2020/12/17 00:37:36;;;;;;;4.70;3.30;;;10.60;82.10;;;;;;5001058;28;20063;-74
2020/12/17 00:40:07;;;;;;;4.47;2.90;;;10.60;82.10;;;;;;5004957;28;20030;-74
2020/12/17 00:42:33;;;;;;;5.22;3.25;;;10.60;82.10;;;;;;4995057;28;20027;-74
2020/12/17 00:44:59;;;;;;;4.32;3.05;;;10.60;82.10;;;;;;4994456;28;20042;-74
2020/12/17 00:47:28;;;;;;;4.75;3.33;;;10.60;82.10;;;;;;4994361;28;20449;-75
2020/12/17 00:49:55;;;;;;;5.40;3.53;;;10.60;82.20;;;;;;4994633;28;20039;-74
2020/12/17 00:52:22;;;;;;;4.90;3.42;;;10.60;82.10;;;;;;5011358;28;20170;-74
2020/12/17 00:54:48;;;;;;;4.47;3.17;;;10.60;82.10;;;;;;4993598;28;20097;-77
2020/12/17 00:57:14;;;;;;;4.68;3.17;;;10.60;82.10;;;;;;4994581;28;20027;-76
2020/12/17 00:59:40;;;;;;;4.93;3.38;;;10.60;82.10;;;;;;4992713;28;20092;-76
2020/12/17 01:02:06;;;;;;;4.75;3.30;;;10.60;82.10;;;;;;4977397;28;20030;-77
2020/12/17 01:04:31;;;;;;;4.75;3.40;;;10.60;82.10;;;;;;5008420;28;20046;-76
2020/12/17 01:06:57;;;;;;;4.70;3.30;;;10.60;82.10;;;;;;4973615;28;20113;-77
2020/12/17 01:09:23;;;;;;;4.45;3.13;;;10.60;82.10;;;;;;4995689;28;20395;-77
2020/12/17 01:11:49;;;;;;;4.22;3.10;;;10.60;82.70;;;;;;4978663;28;20455;-77
2020/12/17 01:14:14;;;;;;;4.55;3.17;;;10.60;82.10;;;;;;4994246;28;20034;-77
2020/12/17 01:16:40;;;;;;;4.45;3.20;;;10.60;82.10;;;;;;4994310;28;20027;-76
2020/12/17 01:19:06;;;;;;;4.88;3.05;;;10.60;82.10;;;;;;4993267;28;20038;-77
2020/12/17 01:21:32;;;;;;;4.50;3.20;;;10.60;82.10;;;;;;4993968;28;20541;-76
2020/12/17 01:23:57;;;;;;;5.45;3.30;;;10.70;82.10;;;;;;4992965;28;20062;-76
2020/12/17 01:26:23;;;;;;;4.93;3.40;;;10.60;82.10;;;;;;4993820;28;20486;-79
2020/12/17 01:28:49;;;;;;;4.28;3.00;;;10.60;82.10;;;;;;4977191;28;20483;-78
2020/12/17 01:31:15;;;;;;;4.40;3.00;;;10.70;82.10;;;;;;4992304;28;20054;-74
2020/12/17 01:33:42;;;;;;;4.28;3.05;;;10.60;82.10;;;;;;4993215;28;20062;-74
2020/12/17 01:36:11;;;;;;;4.30;3.10;;;10.70;82.10;;;;;;4993828;28;20030;-74
2020/12/17 01:38:38;;;;;;;4.45;3.20;;;10.70;82.10;;;;;;4991933;28;20117;-74
2020/12/17 01:41:05;;;;;;;5.05;3.65;;;10.70;82.10;;;;;;5009760;28;20109;-74
2020/12/17 01:43:43;;;;;;;4.10;3.20;;;10.70;82.10;;;;;;4993194;28;20026;-74
2020/12/17 01:46:10;;;;;;;4.85;3.10;;;10.70;82.10;;;;;;4992678;28;20041;-77
2020/12/17 01:48:36;;;;;;;4.93;3.28;;;10.70;82.10;;;;;;4993795;28;20038;-77
2020/12/17 01:51:04;;;;;;;4.45;3.10;;;10.70;82.10;;;;;;4977306;28;20026;-77
2020/12/17 01:53:36;;;;;;;4.47;3.10;;;10.70;82.10;;;;;;4994112;28;20023;-77
2020/12/17 01:56:03;;;;;;;4.70;3.03;;;10.70;82.10;;;;;;4993249;28;20041;-77
2020/12/17 01:58:39;;;;;;;4.80;3.05;;;10.70;82.10;;;;;;4993440;28;20026;-77
2020/12/17 02:01:07;;;;;;;4.82;3.40;;;10.70;82.10;;;;;;4989012;28;20038;-77
2020/12/17 02:03:33;;;;;;;4.35;2.88;;;10.70;82.10;;;;;;4993733;28;20026;-76
2020/12/17 02:06:01;;;;;;;4.40;3.10;;;10.70;82.10;;;;;;4993800;28;20449;-77
2020/12/17 02:08:36;;;;;;;4.38;3.17;;;10.70;82.10;;;;;;4993873;28;20030;-78
2020/12/17 02:11:02;;;;;;;;;;;10.70;82.10;;;;;;4991152;28;20033;-77
2020/12/17 02:13:33;;;;;;;4.47;2.45;;;10.70;82.00;;;;;;4989041;28;19910;-76
2020/12/17 02:16:00;;;;;;;3.92;2.67;;;10.70;82.00;;;;;;4977564;28;20060;-79
2020/12/17 02:18:26;;;;;;;3.85;2.90;;;10.70;82.00;;;;;;4993555;28;20038;-78
2020/12/17 02:20:54;;;;;;;3.90;2.63;;;10.70;82.10;;;;;;4992992;28;20041;-77
2020/12/17 02:23:21;;;;;;;4.53;3.30;;;10.70;82.10;;;;;;4993210;28;20070;-77
2020/12/17 02:25:48;;;;;;;4.32;2.90;;;10.70;82.10;;;;;;4992850;28;20045;-76
2020/12/17 02:28:14;;;;;;;4.40;2.92;;;10.70;82.10;;;;;;4992472;28;20030;-77
2020/12/17 02:30:40;;;;;;;4.88;3.53;;;10.80;82.20;;;;;;4991782;28;20065;-74
2020/12/17 02:33:06;;;;;;;3.63;2.47;;;10.70;82.10;;;;;;4990775;28;20030;-74
2020/12/17 02:35:31;;;;;;;4.75;3.10;;;10.70;82.70;;;;;;4974035;28;20096;-74
2020/12/17 02:37:57;;;;;;;4.70;3.00;;;10.70;82.10;;;;;;4993027;28;20034;-78
2020/12/17 02:40:23;;;;;;;4.60;3.35;;;10.80;82.10;;;;;;4992490;28;20034;-77
2020/12/17 02:42:48;;;;;;;4.38;2.83;;;10.80;82.10;;;;;;4991569;28;20045;-74
2020/12/17 02:45:14;;;;;;;4.40;3.20;;;10.80;82.10;;;;;;4992872;28;20130;-74
2020/12/17 02:47:40;;;;;;;3.85;2.63;;;10.80;82.10;;;;;;4991572;28;20030;-76
2020/12/17 02:50:06;;;;;;;4.00;2.80;;;10.80;82.10;;;;;;4975938;28;20514;-74
2020/12/17 02:52:32;;;;;;;3.80;2.88;;;10.80;82.10;;;;;;4991903;28;20038;-74
2020/12/17 02:54:57;;;;;;;4.13;2.97;;;10.80;82.10;;;;;;4992061;28;20386;-75
2020/12/17 02:57:23;;;;;;;4.00;2.92;;;10.80;82.10;;;;;;4991059;28;20065;-76
2020/12/17 02:59:49;;;;;;;4.10;2.65;;;10.80;82.10;;;;;;4991886;28;20046;-74
2020/12/17 03:02:14;;;;;;;4.32;3.15;;;10.80;82.10;;;;;;4991497;28;20360;-74
2020/12/17 03:04:40;;;;;;;4.25;2.97;;;10.80;82.10;;;;;;5007778;28;20088;-73
2020/12/17 03:07:06;;;;;;;3.83;2.80;;;10.80;82.10;;;;;;4991069;28;20036;-74
2020/12/17 03:09:31;;;;;;;4.03;2.80;;;10.80;82.10;;;;;;4990615;28;20475;-75
2020/12/17 03:11:57;;;;;;;4.05;3.00;;;10.80;82.10;;;;;;4991911;28;20050;-74
2020/12/17 03:14:23;;;;;;;4.07;2.88;;;10.80;82.10;;;;;;4993958;28;20049;-75
2020/12/17 03:16:49;;;;;;;3.70;3.00;;;10.80;82.00;;;;;;4993014;28;20034;-74
2020/12/17 03:19:14;;;;;;;4.00;2.78;;;10.80;82.10;;;;;;4991311;28;20109;-75
2020/12/17 03:21:40;;;;;;;3.95;2.85;;;10.90;82.10;;;;;;4991530;28;20395;-74
2020/12/17 03:24:06;;;;;;;4.60;3.08;;;10.90;82.10;;;;;;4993257;28;20037;-75
2020/12/17 03:26:31;;;;;;;3.83;2.70;;;10.90;82.10;;;;;;4988073;28;20030;-75
2020/12/17 03:28:57;;;;;;;4.35;2.60;;;10.90;82.10;;;;;;4986351;28;20041;-77
2020/12/17 03:31:23;;;;;;;4.70;3.03;;;10.90;82.10;;;;;;4990895;28;20132;-77
2020/12/17 03:33:48;;;;;;;4.43;3.00;;;10.80;82.00;;;;;;4991620;28;20069;-77
2020/12/17 03:36:14;;;;;;;3.67;2.60;;;10.90;82.10;;;;;;4991806;28;20085;-77
2020/12/17 03:38:40;;;;;;;5.00;3.13;;;10.90;82.10;;;;;;4959381;28;20044;-77
2020/12/17 03:41:06;;;;;;;2.92;2.38;;;10.90;82.10;;;;;;4992297;28;20479;-77
2020/12/17 03:43:31;;;;;;;4.03;2.83;;;10.90;82.10;;;;;;4991777;28;20093;-77
2020/12/17 03:45:57;;;;;;;3.83;2.80;;;10.90;82.10;;;;;;4991679;28;20042;-77
2020/12/17 03:48:23;;;;;;;3.83;2.70;;;10.90;82.10;;;;;;4988843;28;20038;-77
2020/12/17 03:50:48;;;;;;;3.88;2.85;;;10.90;82.10;;;;;;4992433;28;20026;-77
2020/12/17 03:53:14;;;;;;;3.40;2.60;;;10.90;82.10;;;;;;4974201;28;20034;-77
2020/12/17 03:55:40;;;;;;;4.47;3.20;;;10.90;82.10;;;;;;4975883;28;20065;-77
2020/12/17 03:58:06;;;;;;;3.88;2.67;;;10.90;82.00;;;;;;4974427;28;20030;-78
2020/12/17 04:00:31;;;;;;;4.05;2.67;;;10.90;82.10;;;;;;4984889;28;20575;-77
2020/12/17 04:02:57;;;;;;;4.45;3.05;;;10.90;82.00;;;;;;4990556;28;20085;-77
2020/12/17 04:05:23;;;;;;;3.60;2.78;;;10.90;82.00;;;;;;5006850;28;20041;-77
2020/12/17 04:07:48;;;;;;;3.88;2.80;;;10.90;82.00;;;;;;4974994;28;20117;-77
2020/12/17 04:10:14;;;;;;;3.80;2.78;;;10.90;82.00;;;;;;4973766;28;20041;-78
2020/12/17 04:12:40;;;;;;;3.88;2.83;;;11.00;82.10;;;;;;5007688;28;20134;-77
2020/12/17 04:15:05;;;;;;;4.13;2.65;;;11.00;82.00;;;;;;4974962;28;20198;-78
2020/12/17 04:17:31;;;;;;;4.03;2.92;;;10.90;82.00;;;;;;4989879;28;20406;-77
2020/12/17 04:19:57;;;;;;;3.55;2.78;;;11.00;82.10;;;;;;4990818;28;20034;-74
2020/12/17 04:22:22;;;;;;;3.28;2.50;;;11.00;82.00;;;;;;4990891;28;20030;-74
2020/12/17 04:24:48;;;;;;;3.70;2.85;;;11.00;82.00;;;;;;4990220;28;20093;-73
2020/12/17 04:27:14;;;;;;;3.97;2.63;;;11.00;82.00;;;;;;5007222;28;20037;-75
2020/12/17 04:29:40;;;;;;;4.55;2.95;;;11.00;82.00;;;;;;4991282;28;20062;-77
2020/12/17 04:32:06;;;;;;;3.95;2.80;;;11.00;82.00;;;;;;4958142;28;20064;-74
2020/12/17 04:34:31;;;;;;;4.13;2.80;;;11.00;82.00;;;;;;4974935;28;20045;-74
2020/12/17 04:36:58;;;;;;;3.22;2.40;;;11.00;82.00;;;;;;5006712;28;20457;-74
2020/12/17 04:39:24;;;;;;;4.50;2.95;;;11.00;82.00;;;;;;4991197;28;20030;-76
2020/12/17 04:41:51;;;;;;;3.95;2.65;;;11.00;82.00;;;;;;4989103;28;20386;-73
2020/12/17 04:44:17;;;;;;;4.53;3.15;;;11.00;82.00;;;;;;5007494;28;20037;-74
2020/12/17 04:47:04;;;;;;;4.22;3.00;;;11.00;82.00;;;;;;4989343;28;20027;-73
2020/12/17 04:49:41;;;;;;;4.10;2.80;;;11.00;82.00;;;;;;4991005;28;20034;-74
2020/12/17 04:52:07;;;;;;;4.07;2.75;;;11.00;82.00;;;;;;4974262;28;20066;-74
2020/12/17 04:54:34;;;;;;;3.83;2.90;;;11.00;82.00;;;;;;4987856;28;20102;-74
2020/12/17 04:57:11;;;;;;;4.03;2.50;;;11.00;82.00;;;;;;4975244;28;20090;-75
2020/12/17 04:59:45;;;;;;;3.60;2.75;;;11.00;82.00;;;;;;4990215;28;20023;-75
2020/12/17 05:02:13;;;;;;;3.45;2.60;;;11.00;82.00;;;;;;4977849;28;20023;-74
2020/12/17 05:04:43;;;;;;;3.63;2.70;;;11.10;82.00;;;;;;5006181;28;20034;-74
2020/12/17 05:07:11;;;;;;;3.35;2.63;;;11.10;82.00;;;;;;4991074;28;20038;-74
2020/12/17 05:09:39;;;;;;;4.50;2.55;;;11.10;82.00;;;;;;4989547;28;20041;-74
2020/12/17 05:12:05;;;;;;;3.38;2.50;;;11.10;82.10;;;;;;5006882;28;20080;-74
2020/12/17 05:14:31;;;;;;;3.97;2.75;;;11.10;82.00;;;;;;4975095;28;20479;-73
2020/12/17 05:16:57;;;;;;;4.45;2.65;;;11.10;82.00;;;;;;5009984;28;20034;-75
2020/12/17 05:19:24;;;;;;;3.55;2.63;;;11.10;82.00;;;;;;4994141;28;20044;-74
2020/12/17 05:21:52;;;;;;;3.70;2.70;;;11.10;82.00;;;;;;4992594;28;20037;-74
2020/12/17 05:24:22;;;;;;;3.78;2.75;;;11.10;82.00;;;;;;5010514;28;20044;-74
2020/12/17 05:26:48;;;;;;;3.50;2.72;;;11.10;82.00;;;;;;4998696;28;20085;-74
2020/12/17 05:29:15;;;;;;;3.65;2.50;;;11.10;82.00;;;;;;4994582;28;20029;-74
2020/12/17 05:31:42;;;;;;;3.53;2.60;;;11.10;82.00;;;;;;5007124;28;20069;-73
2020/12/17 05:34:08;;;;;;;3.35;2.50;;;11.20;82.00;;;;;;4994462;28;20034;-74
2020/12/17 05:36:34;;;;;;;3.63;2.38;;;11.10;81.90;;;;;;4976853;28;20038;-74
2020/12/17 05:39:14;;;;;;;3.90;2.80;;;11.20;82.00;;;;;;5010772;28;20030;-74
2020/12/17 05:41:45;;;;;;;3.70;2.50;;;11.20;82.00;;;;;;4976868;28;20034;-74
2020/12/17 05:44:13;;;;;;;3.75;2.42;;;11.10;81.90;;;;;;4992844;28;20026;-77
2020/12/17 05:46:40;;;;;;;3.20;2.38;;;11.20;82.00;;;;;;4993013;28;20547;-77
2020/12/17 05:49:22;;;;;;;3.60;2.70;;;11.20;82.00;;;;;;4993699;28;20038;-77
2020/12/17 05:51:50;;;;;;;2.78;2.10;;;11.20;82.00;;;;;;4993229;28;20030;-77
2020/12/17 05:54:25;;;;;;;4.30;2.80;;;11.20;82.00;;;;;;4974922;28;20108;-78
2020/12/17 05:57:07;;;;;;;3.45;2.28;;;11.20;82.00;;;;;;4994182;28;20041;-77
2020/12/17 05:59:33;;;;;;;4.63;2.75;;;11.20;82.00;;;;;;4993054;28;20018;-77
2020/12/17 06:02:18;;;;;;;3.75;2.25;;;11.20;81.90;;;;;;4989782;28;20038;-77
2020/12/17 06:04:44;;;;;;;4.25;2.55;;;11.20;82.00;;;;;;4975921;28;20066;-77
2020/12/17 06:07:15;;;;;;;3.60;2.33;;;11.20;81.90;;;;;;4977280;28;20064;-76
2020/12/17 06:09:46;;;;;;;3.42;2.30;;;11.20;81.90;;;;;;4994560;28;20490;-77
2020/12/17 06:12:18;;;;;;;3.65;2.60;;;11.20;81.90;;;;;;4992483;28;20030;-78
2020/12/17 06:14:47;;;;;;;3.35;2.58;;;11.20;81.90;;;;;;4997563;28;20026;-76
2020/12/17 06:17:18;;;;;;;3.38;2.50;;;11.20;81.90;;;;;;4974388;28;20046;-77
2020/12/17 06:19:46;;;;;;;3.83;2.47;;;11.20;81.90;;;;;;5001142;28;20030;-77
2020/12/17 06:22:13;;;;;;;3.00;2.35;;;11.30;82.00;;;;;;4992190;28;20030;-78
2020/12/17 06:24:42;;;;;;;3.00;2.35;;;11.30;82.00;;;;;;4989585;28;20037;-77
2020/12/17 06:27:09;;;;;;;3.17;2.60;;;11.20;81.90;;;;;;4973801;28;20121;-78
2020/12/17 06:29:57;;;;;;;2.78;2.20;;;11.30;82.00;;;;;;4991156;28;20030;-77
2020/12/17 06:32:28;;;;;;;3.75;2.63;;;11.30;82.00;;;;;;4992205;28;20089;-74
2020/12/17 06:34:58;;;;;;;3.13;2.30;;;11.30;82.00;;;;;;4992817;28;20034;-74
2020/12/17 06:37:24;;;;;;;3.03;2.15;;;11.30;81.90;;;;;;4992488;28;20056;-76
2020/12/17 06:39:50;;;;;;;3.30;2.28;;;11.30;81.90;;;;;;4992636;28;20023;-77
2020/12/17 06:42:39;;;;;;;3.30;2.40;;;11.30;82.00;;;;;;4992714;28;20109;-78
2020/12/17 06:45:40;;;;;;;3.92;2.72;;;11.30;82.00;;;;;;5004215;28;20132;-77
2020/12/17 06:48:38;;;;;;;3.30;2.60;;;11.30;82.00;;;;;;4973731;28;20038;-77
2020/12/17 06:51:30;;;;;;;3.55;2.53;;;11.30;81.90;;;;;;4981333;28;20018;-77
2020/12/17 06:53:57;;;;;;;3.67;2.75;;;11.30;81.90;;;;;;4993115;28;20022;-77
2020/12/17 06:56:23;;;;;;;3.38;2.53;;;11.30;81.90;;;;;;4972454;28;20387;-75
2020/12/17 06:58:49;;;;;;;3.05;2.45;;;11.30;81.90;;;;;;4992152;28;20030;-74
2020/12/17 07:01:23;;;;;;;4.05;2.85;;;11.30;81.90;;;;;;4975009;28;20418;-74
2020/12/17 07:03:51;;;;;;;3.40;2.65;;;11.30;82.00;;;;;;4988259;28;20046;-74
2020/12/17 07:06:24;;;;;;;3.88;2.63;;;11.30;81.90;;;;;;4984635;28;20035;-78
2020/12/17 07:08:52;;;;;;;3.80;2.72;;;11.30;81.90;;;;;;4971009;28;20074;-75
2020/12/17 07:11:44;;;;;;;3.45;2.60;;;11.30;81.90;;;;;;5002863;28;20474;-81
2020/12/17 07:14:26;;;;;;;3.58;2.65;;;11.30;82.00;;;;;;4990572;28;20084;-75
2020/12/17 07:16:58;;;;;;;4.00;2.80;;;11.30;81.90;;;;;;5008141;28;20474;-75
2020/12/17 07:19:47;;;;;;;3.70;2.97;;;11.40;81.90;;;;;;4986334;28;20529;-82
2020/12/17 07:22:15;;;;;;;3.97;2.90;;;11.40;82.00;;;;;;4988604;28;20026;-79
2020/12/17 07:24:47;;;;;;;3.40;2.67;;;11.40;81.90;;;;;;5005334;28;20045;-77
2020/12/17 07:27:25;;;;;;;3.78;3.00;;;11.40;82.00;;;;;;4987990;28;20034;-79
2020/12/17 07:29:58;;;;;;;4.38;3.22;;;11.40;81.90;;;;;;4984520;28;20481;-79
2020/12/17 07:32:34;;;;;;;4.22;3.22;;;11.40;81.90;;;;;;4984018;28;20037;-78
2020/12/17 07:35:06;;;;;;;4.22;3.00;;;11.40;81.90;;;;;;4974005;28;20046;-78
2020/12/17 07:37:40;;;;;;;3.97;2.90;;;11.40;81.90;;;;;;5003506;28;20048;-77
2020/12/17 07:40:27;;;;;;;3.35;2.80;;;11.40;81.90;;;;;;5008483;28;20033;-78
2020/12/17 07:42:57;;;;;;;3.97;3.08;;;11.40;82.00;;;;;;4990874;28;20030;-77
2020/12/17 07:45:56;;;;;;;3.63;2.90;;;11.40;81.90;;;;;;4986721;28;20042;-78
2020/12/17 07:48:47;;;;;;;4.30;3.30;;;11.40;82.00;;;;;;4968242;28;20076;-77
2020/12/17 07:51:13;;;;;;;3.97;2.97;;;11.40;82.00;;;;;;5000558;28;20038;-77
2020/12/17 07:53:41;;;;;;;4.15;3.10;;;11.40;81.90;;;;;;4990921;28;20044;-80
2020/12/17 07:56:08;;;;;;;4.40;3.20;;;11.40;81.90;;;;;;4974609;28;20046;-77
2020/12/17 07:58:38;;;;;;;3.88;3.03;;;11.40;81.90;;;;;;4983654;28;20108;-78
2020/12/17 08:01:05;;;;;;;4.10;3.38;;;11.40;81.90;;;;;;5005470;28;20034;-79
2020/12/17 08:03:41;;;;;;;4.45;3.45;;;11.40;81.90;;;;;;4973237;28;20061;-77
2020/12/17 08:06:09;;;;;;;4.50;3.38;;;11.40;81.90;;;;;;5003800;28;20710;-77
2020/12/17 08:08:35;;;;;;;4.55;3.10;;;11.40;81.90;;;;;;4986445;28;20027;-77
2020/12/17 08:11:02;;;;;;;4.40;3.60;;;11.40;81.90;;;;;;4986730;28;20375;-78
2020/12/17 08:13:28;;;;;;;5.30;3.83;;;11.40;81.90;;;;;;4953555;28;20053;-78
2020/12/17 08:15:54;;;;;;;4.90;3.15;;;11.40;81.90;;;;;;4971334;28;20038;-78
2020/12/17 08:18:31;;;;;;;4.72;3.53;;;11.40;81.90;;;;;;4987468;28;20113;-77
2020/12/17 08:21:10;;;;;;;5.13;3.78;;;11.40;81.90;;;;;;4986675;28;20035;-79
2020/12/17 08:23:41;;;;;;;4.65;3.60;;;11.40;81.90;;;;;;4982297;28;20038;-79
2020/12/17 08:26:10;;;;;;;4.40;3.53;;;11.40;81.90;;;;;;4987777;28;20034;-78
2020/12/17 08:28:38;;;;;;;4.38;3.42;;;11.40;81.90;;;;;;4975681;28;20053;-77
2020/12/17 08:31:08;;;;;;;4.95;3.85;;;11.50;82.00;;;;;;4986414;28;20051;-77
2020/12/17 08:33:42;;;;;;;4.93;4.05;;;11.40;81.90;;;;;;4971709;28;20034;-80
2020/12/17 08:36:10;;;;;;;4.57;3.60;;;11.40;81.90;;;;;;5002445;28;20026;-77
2020/12/17 08:38:37;;;;;;;4.97;4.00;;;11.40;81.90;;;;;;4990544;28;20042;-78
2020/12/17 08:41:05;;;;;;;4.95;3.85;;;11.40;81.90;;;;;;4990158;28;20085;-78
2020/12/17 08:43:52;;;;;;;5.15;3.83;;;11.40;81.90;;;;;;4990899;28;20027;-82
2020/12/17 08:46:18;;;;;;;5.40;4.30;;;11.40;81.90;;;;;;4990791;28;20067;-78
2020/12/17 08:48:46;;;;;;;5.50;4.30;;;11.50;81.90;;;;;;4990403;28;20045;-77
2020/12/17 08:51:16;;;;;;;5.00;3.72;;;11.40;81.90;;;;;;4994373;28;20030;-78
2020/12/17 08:53:44;;;;;;;4.72;3.60;;;11.50;82.00;;;;;;5010821;28;20506;-77
2020/12/17 08:56:18;;;;;;;5.78;4.50;;;11.50;81.90;;;;;;4981950;28;20034;-77
2020/12/17 08:58:52;;;;;;;5.20;4.25;;;11.40;81.90;;;;;;5008719;28;20026;-78
2020/12/17 09:01:35;;;;;;;4.45;3.33;;;11.50;82.00;;;;;;4995421;28;20076;-77
2020/12/17 09:04:10;;;;;;;4.82;3.63;;;11.40;81.90;;;;;;4978854;28;20026;-77
2020/12/17 09:06:39;;;;;;;5.85;4.25;;;11.50;82.00;;;;;;4978549;28;20049;-76
2020/12/17 09:09:16;;;;;;;4.82;3.88;;;11.50;81.90;;;;;;5011217;28;20031;-77
2020/12/17 09:11:46;;;;;;;5.63;4.10;;;11.40;81.90;;;;;;4994882;28;20039;-77
2020/12/17 09:14:19;;;;;;;6.40;4.15;;;11.40;81.90;;;;;;4978849;28;20449;-77
2020/12/17 09:16:48;;;;;;;5.72;4.10;;;11.50;82.00;;;;;;4995326;28;20062;-77
2020/12/17 09:19:13;;;;;;;4.88;3.70;;;11.50;81.90;;;;;;4996075;28;20030;-78
2020/12/17 09:22:00;;;;;;;5.70;4.38;;;11.50;81.90;;;;;;4977883;28;20360;-77
2020/12/17 09:24:33;;;;;;;5.35;3.78;;;11.50;82.00;;;;;;4996215;28;20030;-78
2020/12/17 09:27:37;;;;;;;5.00;3.97;;;11.50;82.00;;;;;;4977737;28;20057;-77
2020/12/17 09:30:08;;;;;;;4.65;3.70;;;11.50;82.00;;;;;;4985484;28;20487;-78
2020/12/17 09:32:35;;;;;;;5.45;4.22;;;11.50;81.90;;;;;;4991512;28;20031;-76
2020/12/17 09:35:12;;;;;;;5.70;3.88;;;11.50;81.90;;;;;;4993679;28;20134;-76
2020/12/17 09:37:40;;;;;;;4.95;3.90;;;11.50;81.90;;;;;;4988907;28;20125;-77
2020/12/17 09:40:08;;;;;;;4.78;3.85;;;11.50;81.90;;;;;;4994280;28;20041;-76
2020/12/17 09:42:34;;;;;;;5.60;4.35;;;11.50;81.90;;;;;;4993748;28;20079;-76
2020/12/17 09:45:17;;;;;;;5.00;3.83;;;11.50;81.90;;;;;;4993299;28;20379;-76
2020/12/17 09:47:43;;;;;;;5.43;3.63;;;11.50;81.90;;;;;;4993392;28;20026;-76
2020/12/17 09:50:15;;;;;;;5.95;3.85;;;11.50;81.80;;;;;;4993926;28;20100;-75
2020/12/17 09:52:41;;;;;;;5.82;4.10;;;11.50;81.90;;;;;;4993724;28;20026;-76
2020/12/17 09:55:06;;;;;;;4.95;3.75;;;11.50;81.80;;;;;;4977681;28;20165;-76
2020/12/17 09:57:43;;;;;;;4.57;3.63;;;11.50;82.10;;;;;;4993607;28;20038;-76
2020/12/17 10:00:12;;;;;;;5.68;3.90;;;11.50;81.90;;;;;;4989555;28;20030;-76
2020/12/17 10:02:40;;;;;;;4.45;3.58;;;11.50;81.80;;;;;;4994973;28;20034;-79
2020/12/17 10:05:07;;;;;;;4.38;3.53;;;11.60;81.90;;;;;;4994301;28;20437;-75
2020/12/17 10:07:33;;;;;;;4.72;3.60;;;11.60;81.90;;;;;;4993848;28;20489;-77
2020/12/17 10:09:59;;;;;;;4.75;3.55;;;11.60;81.90;;;;;;4993202;28;20131;-75
2020/12/17 10:12:25;;;;;;;4.35;3.40;;;11.60;81.90;;;;;;4994413;28;20050;-75
2020/12/17 10:14:51;;;;;;;4.32;3.22;;;11.60;81.90;;;;;;4960308;28;20379;-75
2020/12/17 10:17:16;;;;;;;4.50;3.38;;;11.60;81.80;;;;;;4993111;28;20034;-77
2020/12/17 10:19:42;;;;;;;4.68;3.40;;;11.60;81.80;;;;;;4992686;28;20383;-76
2020/12/17 10:22:08;;;;;;;4.70;3.30;;;11.60;81.80;;;;;;4961357;28;20053;-76
2020/12/17 10:24:34;;;;;;;5.38;3.83;;;11.60;81.80;;;;;;4992667;28;20117;-75
2020/12/17 10:27:01;;;;;;;5.22;3.42;;;11.60;81.80;;;;;;4976856;28;20546;-75
2020/12/17 10:29:27;;;;;;;4.50;2.97;;;11.60;81.80;;;;;;4991903;28;20030;-76
2020/12/17 10:31:55;;;;;;;3.72;2.95;;;11.60;81.80;;;;;;5005564;28;20064;-75
2020/12/17 10:34:21;;;;;;;5.40;3.67;;;11.60;81.80;;;;;;4992430;28;20035;-78
2020/12/17 10:36:47;;;;;;;4.10;2.95;;;11.60;81.80;;;;;;4992675;28;20503;-77
2020/12/17 10:39:13;;;;;;;4.10;3.28;;;11.60;81.80;;;;;;4992558;28;20067;-77
2020/12/17 10:41:39;;;;;;;4.50;3.35;;;11.60;81.70;;;;;;4994179;28;20084;-76
2020/12/17 10:44:07;;;;;;;4.30;3.08;;;11.60;81.80;;;;;;4992279;28;20160;-76
2020/12/17 10:46:35;;;;;;;4.43;3.15;;;11.60;81.80;;;;;;4992693;28;20049;-81
2020/12/17 10:49:00;;;;;;;3.80;2.92;;;11.70;81.80;;;;;;4991648;28;20076;-76
2020/12/17 10:51:26;;;;;;;4.32;3.03;;;11.70;81.80;;;;;;4992212;28;20061;-76
2020/12/17 10:53:52;;;;;;;3.90;2.97;;;11.70;81.70;;;;;;5008096;28;20022;-75
2020/12/17 10:56:18;;;;;;;3.85;2.80;;;11.70;81.80;;;;;;4993070;28;20116;-75
2020/12/17 10:58:44;;;;;;;4.05;2.95;;;11.70;81.80;;;;;;4992405;28;20030;-77
2020/12/17 11:01:09;;;;;;;3.97;2.72;;;11.70;81.70;;;;;;4972427;28;20142;-76
2020/12/17 11:03:35;;;;;;;3.60;2.92;;;11.70;81.70;;;;;;4989403;28;20086;-77
2020/12/17 11:06:01;;;;;;;4.20;2.90;;;11.70;81.70;;;;;;4990729;28;20041;-77
2020/12/17 11:08:27;;;;;;;3.80;2.70;;;11.70;82.30;;;;;;4975955;28;20038;-77
2020/12/17 11:10:54;;;;;;;3.90;2.90;;;11.80;81.80;;;;;;5008139;28;20030;-76
2020/12/17 11:13:20;;;;;;;3.65;2.85;;;11.80;81.80;;;;;;4991497;28;20022;-77
2020/12/17 11:15:49;;;;;;;3.78;2.67;;;11.80;81.80;;;;;;4978218;28;20038;-77
2020/12/17 11:18:18;;;;;;;3.92;2.83;;;11.80;81.80;;;;;;4992175;28;20042;-76
2020/12/17 11:20:44;;;;;;;3.38;2.58;;;11.70;81.70;;;;;;4976005;28;20030;-75
2020/12/17 11:23:10;;;;;;;4.13;2.90;;;11.80;81.70;;;;;;4992222;28;20026;-76
2020/12/17 11:25:37;;;;;;;3.25;2.53;;;11.80;81.70;;;;;;5009078;28;20109;-76
2020/12/17 11:28:04;;;;;;;4.15;2.88;;;11.80;81.70;;;;;;4976196;28;20121;-77
2020/12/17 11:30:31;;;;;;;3.95;2.78;;;11.80;81.80;;;;;;5008322;28;20049;-76
2020/12/17 11:32:57;;;;;;;3.60;2.70;;;11.80;81.70;;;;;;5007891;28;20034;-76
2020/12/17 11:35:22;;;;;;;4.22;2.40;;;11.80;81.70;;;;;;4992495;28;20089;-77
2020/12/17 11:37:50;;;;;;;4.10;2.50;;;11.80;81.70;;;;;;4991708;28;20379;-77
2020/12/17 11:40:23;;;;;;;4.45;2.72;;;11.80;81.70;;;;;;4990848;28;20038;-75
2020/12/17 11:42:50;;;;;;;3.92;2.50;;;11.90;81.80;;;;;;4991678;28;20034;-73
2020/12/17 11:45:15;;;;;;;3.45;2.50;;;11.90;81.80;;;;;;4992792;28;20063;-74
2020/12/17 11:47:42;;;;;;;2.95;2.30;;;11.90;81.80;;;;;;4991714;28;20038;-73
2020/12/17 11:50:08;;;;;;;4.40;2.70;;;11.90;81.70;;;;;;4991332;28;20026;-74
2020/12/17 11:52:35;;;;;;;4.00;2.70;;;11.90;81.80;;;;;;4991100;28;20101;-73
2020/12/17 11:55:02;;;;;;;4.55;2.70;;;11.90;81.80;;;;;;5007189;28;20045;-74
2020/12/17 11:57:28;;;;;;;3.53;2.72;;;11.90;81.80;;;;;;4997122;28;20034;-75
2020/12/17 11:59:54;;;;;;;3.28;2.45;;;11.90;81.70;;;;;;5007346;28;20030;-74
2020/12/17 12:02:20;;;;;;;4.07;2.70;;;11.90;81.70;;;;;;4989576;28;20069;-73
2020/12/17 12:04:45;;;;;;;5.20;2.63;;;11.90;81.70;;;;;;4991541;28;20041;-73
2020/12/17 12:07:11;;;;;;;3.95;2.70;;;11.90;81.70;;;;;;4974547;28;20069;-74
2020/12/17 12:09:37;;;;;;;3.90;2.63;;;11.90;81.70;;;;;;4975586;28;20084;-73
2020/12/17 12:12:03;;;;;;;3.58;2.70;;;12.00;81.80;;;;;;4989851;28;20026;-73
2020/12/17 12:14:29;;;;;;;3.53;2.58;;;11.90;81.70;;;;;;4975421;28;20041;-74
2020/12/17 12:16:55;;;;;;;4.70;2.40;;;12.00;81.70;;;;;;4996248;28;20043;-73
2020/12/17 12:19:20;;;;;;;3.28;2.50;;;11.90;81.70;;;;;;4993011;28;20038;-74
2020/12/17 12:21:53;;;;;;;3.50;2.50;;;11.90;81.70;;;;;;4974571;28;20590;-72
2020/12/17 12:24:19;;;;;;;4.18;2.63;;;12.00;81.80;;;;;;4992967;28;20034;-74
2020/12/17 12:26:45;;;;;;;3.63;2.55;;;12.00;81.70;;;;;;4958296;28;20081;-73
2020/12/17 12:29:11;;;;;;;4.55;2.78;;;12.00;81.70;;;;;;5006880;28;20054;-75
2020/12/17 12:31:36;;;;;;;3.38;2.47;;;12.00;81.70;;;;;;4994057;28;20047;-74
2020/12/17 12:34:03;;;;;;;3.45;2.60;;;12.00;81.70;;;;;;4978357;28;20042;-72
2020/12/17 12:36:30;;;;;;;4.40;2.60;;;12.00;81.70;;;;;;4994227;28;20023;-73
2020/12/17 12:38:55;;;;;;;3.45;2.53;;;12.00;82.30;;;;;;4993928;28;20062;-73
2020/12/17 12:41:27;;;;;;;3.67;2.42;;;12.00;81.70;;;;;;4983387;28;20057;-74
2020/12/17 12:43:53;;;;;;;3.60;2.33;;;12.00;81.70;;;;;;4994100;28;20042;-74
2020/12/17 12:46:19;;;;;;;2.83;2.17;;;12.10;81.70;;;;;;4993679;28;20041;-73
2020/12/17 12:48:45;;;;;;;4.25;2.33;;;12.00;81.70;;;;;;4994678;28;20043;-73
2020/12/17 12:51:11;;;;;;;3.90;2.40;;;12.10;81.70;;;;;;5006300;28;20041;-74
2020/12/17 12:53:37;;;;;;;3.22;2.30;;;12.10;81.70;;;;;;5005157;28;20030;-74
2020/12/17 12:56:05;;;;;;;2.60;2.38;;;12.10;81.70;;;;;;5007419;28;20091;-73